Time;durP1;ratioP1;P1;durP2;ratioP2;P2;SDS_P1;SDS_P2;PMS_P1;PMS_P2;Temp;Humidity;BMP_temperature;BMP_pressure;BME280_temperature;BME280_humidity;BME280_pressure;Samples;Min_cycle;Max_cycle;Signal;HPM_P1;HPM_P2
2023/02/01 00:02:19;;;;;;;14.52;5.25;;;;;;;;;;4973666;28;20041;-72
2023/02/01 00:04:45;;;;;;;13.07;4.82;;;;;;;;;;4988870;28;20023;-71
2023/02/01 00:07:14;;;;;;;14.35;6.40;;;;;;;;;;4973120;28;20560;-71
2023/02/01 00:09:40;;;;;;;13.65;4.55;;;;;;;;;;4973732;28;20023;-71
2023/02/01 00:12:06;;;;;;;10.57;5.40;;;;;;;;;;4974219;28;20109;-71
2023/02/01 00:14:38;;;;;;;16.27;8.00;;;;;;;;;;4973434;28;20461;-71
2023/02/01 00:17:04;;;;;;;17.00;5.32;;;;;;;;;;4973220;28;20089;-69
2023/02/01 00:19:30;;;;;;;12.18;4.68;;;;;;;;;;4988009;28;20070;-71
2023/02/01 00:21:56;;;;;;;21.00;4.93;;;;;;;;;;4973675;28;20027;-71
2023/02/01 00:24:22;;;;;;;11.55;5.35;;;;;;;;;;4973411;28;20417;-71
2023/02/01 00:26:48;;;;;;;12.60;4.18;;;;;;;;;;4973135;28;20106;-71
2023/02/01 00:29:18;;;;;;;15.10;6.90;;;;;;;;;;4988711;22;20094;-74
2023/02/01 00:31:45;;;;;;;12.90;4.60;;;;;;;;;;4972893;28;20051;-72
2023/02/01 00:34:15;;;;;;;13.70;4.88;;;;;;;;;;4973338;28;20088;-73
2023/02/01 00:36:42;;;;;;;11.98;4.15;;;;;;;;;;4973268;28;20027;-73
2023/02/01 00:39:08;;;;;;;16.60;6.28;;;;;;;;;;4972381;28;20051;-73
2023/02/01 00:41:34;;;;;;;14.18;5.85;;;;;;;;;;4972335;28;20397;-72
2023/02/01 00:44:01;;;;;;;16.45;4.40;;;;;;;;;;4973170;28;20019;-73
2023/02/01 00:46:27;;;;;;;11.93;4.97;;;;;;;;;;4973319;28;20031;-71
2023/02/01 00:48:53;;;;;;;10.35;4.90;;;;;;;;;;4972721;28;20030;-72
2023/02/01 00:51:21;;;;;;;13.07;5.07;;;;;;;;;;4973364;28;20141;-72
2023/02/01 00:53:47;;;;;;;11.88;4.45;;;;;;;;;;4973831;28;20030;-73
2023/02/01 00:56:14;;;;;;;15.18;5.00;;;;;;;;;;4973987;28;20042;-73
2023/02/01 00:58:41;;;;;;;10.07;4.65;;;;;;;;;;4973874;28;20113;-73
2023/02/01 01:01:07;;;;;;;9.35;4.43;;;;;;;;;;4974746;28;20102;-73
2023/02/01 01:03:33;;;;;;;15.55;5.45;;;;;;;;;;4974697;28;20054;-75
2023/02/01 01:06:00;;;;;;;15.25;3.95;;;;;;;;;;4974405;28;20038;-74
2023/02/01 01:08:26;;;;;;;9.38;4.82;;;;;;;;;;4973456;28;20036;-74
2023/02/01 01:10:52;;;;;;;16.33;4.13;;;;;;;;;;4973580;28;20109;-73
2023/02/01 01:13:18;;;;;;;16.70;4.30;;;;;;;;;;4973917;28;20394;-72
2023/02/01 01:15:45;;;;;;;14.93;5.00;;;;;;;;;;4973798;28;20030;-74
2023/02/01 01:18:11;;;;;;;10.02;4.35;;;;;;;;;;4972792;28;20396;-73
2023/02/01 01:20:38;;;;;;;13.30;4.95;;;;;;;;;;4972786;28;20047;-74
2023/02/01 01:23:04;;;;;;;14.93;4.00;;;;;;;;;;4971293;28;20026;-74
2023/02/01 01:25:30;;;;;;;15.27;4.00;;;;;;;;;;4972224;28;20114;-73
2023/02/01 01:27:56;;;;;;;12.68;4.43;;;;;;;;;;4969015;28;20100;-74
2023/02/01 01:30:22;;;;;;;15.00;4.28;;;;;;;;;;4951788;29;20458;-74
2023/02/01 01:32:49;;;;;;;10.68;3.38;;;;;;;;;;4953108;29;20122;-73
2023/02/01 01:35:15;;;;;;;16.73;3.97;;;;;;;;;;4953318;28;20023;-73
2023/02/01 01:37:41;;;;;;;14.73;4.40;;;;;;;;;;4952075;28;20444;-73
2023/02/01 01:40:08;;;;;;;12.02;4.90;;;;;;;;;;4953025;28;20030;-73
2023/02/01 01:42:40;;;;;;;14.77;4.25;;;;;;;;;;4952954;28;20039;-73
2023/02/01 01:45:07;;;;;;;12.85;3.83;;;;;;;;;;4953131;28;20026;-73
2023/02/01 01:47:37;;;;;;;14.45;3.28;;;;;;;;;;4950934;28;20023;-74
2023/02/01 01:50:04;;;;;;;11.70;3.00;;;;;;;;;;4953061;28;20529;-74
2023/02/01 01:52:30;;;;;;;13.38;4.05;;;;;;;;;;4954974;28;20480;-74
2023/02/01 01:54:57;;;;;;;14.75;4.30;;;;;;;;;;4957122;28;20042;-74
2023/02/01 01:57:26;;;;;;;14.57;3.38;;;;;;;;;;4956138;28;20023;-75
2023/02/01 02:00:00;;;;;;;13.27;3.92;;;;;;;;;;4956746;29;20031;-75
2023/02/01 02:02:26;;;;;;;10.63;3.28;;;;;;;;;;4956694;28;20051;-74
2023/02/01 02:04:52;;;;;;;14.02;4.45;;;;;;;;;;4956645;28;20061;-74
2023/02/01 02:07:20;;;;;;;13.18;3.88;;;;;;;;;;4955943;28;20122;-73
2023/02/01 02:09:46;;;;;;;13.32;3.53;;;;;;;;;;4956755;28;20031;-73
2023/02/01 02:12:12;;;;;;;16.83;4.63;;;;;;;;;;4956472;28;20451;-74
2023/02/01 02:14:39;;;;;;;11.10;3.90;;;;;;;;;;4956719;28;20118;-74
2023/02/01 02:17:04;;;;;;;10.98;3.17;;;;;;;;;;4954879;29;20114;-72
2023/02/01 02:19:49;;;;;;;15.25;2.83;;;;;;;;;;4963568;28;20485;-71
2023/02/01 02:22:18;;;;;;;19.63;3.47;;;;;;;;;;4966951;28;20043;-72
2023/02/01 02:25:03;;;;;;;13.50;4.30;;;;;;;;;;4975856;28;20086;-72
2023/02/01 02:27:37;;;;;;;14.70;2.60;;;;;;;;;;4974945;28;20045;-73
2023/02/01 02:30:27;;;;;;;13.35;3.33;;;;;;;;;;4975547;28;20078;-72
2023/02/01 02:33:03;;;;;;;13.10;3.03;;;;;;;;;;4976028;28;20066;-73
2023/02/01 02:35:29;;;;;;;11.60;3.25;;;;;;;;;;4975678;28;20504;-73
2023/02/01 02:38:01;;;;;;;8.60;2.78;;;;;;;;;;4960683;28;20055;-73
2023/02/01 02:40:30;;;;;;;13.40;3.35;;;;;;;;;;4956346;29;20031;-73
2023/02/01 02:48:52;;;;;;;11.63;3.22;;;;;;;;;;4955468;28;20086;-71
2023/02/01 03:05:15;;;;;;;17.13;3.50;;;;;;;;;;4974259;28;20512;-74
2023/02/01 03:07:44;;;;;;;14.75;3.70;;;;;;;;;;4974265;28;20034;-74
2023/02/01 03:10:16;;;;;;;11.27;3.47;;;;;;;;;;4974526;28;20494;-74
2023/02/01 03:12:55;;;;;;;12.25;3.08;;;;;;;;;;4975019;28;20065;-74
2023/02/01 03:15:26;;;;;;;10.98;3.58;;;;;;;;;;4974660;28;20045;-74
2023/02/01 03:17:52;;;;;;;10.70;2.80;;;;;;;;;;4972546;28;20559;-76
2023/02/01 03:20:19;;;;;;;10.93;2.75;;;;;;;;;;4974418;28;20027;-73
2023/02/01 03:22:47;;;;;;;13.43;3.20;;;;;;;;;;4974544;28;20519;-74
2023/02/01 03:25:16;;;;;;;12.80;3.42;;;;;;;;;;4973102;28;20142;-74
2023/02/01 03:27:47;;;;;;;14.07;3.13;;;;;;;;;;4970418;28;20031;-74
2023/02/01 03:30:17;;;;;;;9.98;3.58;;;;;;;;;;4973018;28;20091;-74
2023/02/01 03:32:59;;;;;;;14.75;3.22;;;;;;;;;;4974714;28;20462;-74
2023/02/01 03:35:37;;;;;;;9.77;3.00;;;;;;;;;;4974357;28;20365;-74
2023/02/01 03:38:14;;;;;;;10.02;3.20;;;;;;;;;;4973679;28;20090;-74
2023/02/01 03:40:42;;;;;;;14.30;3.33;;;;;;;;;;4972966;28;20027;-72
2023/02/01 03:43:10;;;;;;;9.82;2.53;;;;;;;;;;4974529;28;20027;-75
2023/02/01 03:45:42;;;;;;;11.93;3.13;;;;;;;;;;4974414;28;20552;-74
2023/02/01 03:48:09;;;;;;;13.88;4.22;;;;;;;;;;4973926;28;20085;-72
2023/02/01 03:50:37;;;;;;;19.92;3.22;;;;;;;;;;4972612;28;20031;-75
2023/02/01 03:53:14;;;;;;;12.52;3.60;;;;;;;;;;4974002;28;20474;-73
2023/02/01 03:55:41;;;;;;;16.23;3.45;;;;;;;;;;4974027;28;20031;-73
2023/02/01 03:58:10;;;;;;;14.10;3.30;;;;;;;;;;4972773;28;20031;-72
2023/02/01 04:00:36;;;;;;;16.33;3.13;;;;;;;;;;4972663;28;20022;-74
2023/02/01 04:03:03;;;;;;;16.00;3.90;;;;;;;;;;4973873;28;20019;-74
2023/02/01 04:05:30;;;;;;;18.73;3.55;;;;;;;;;;4973845;28;20485;-75
2023/02/01 04:07:56;;;;;;;10.80;2.83;;;;;;;;;;4972984;28;20508;-73
2023/02/01 04:10:22;;;;;;;12.15;3.03;;;;;;;;;;4973854;28;20482;-73
2023/02/01 04:12:48;;;;;;;9.20;2.55;;;;;;;;;;4973713;28;20041;-73
2023/02/01 04:15:14;;;;;;;7.97;2.80;;;;;;;;;;4973683;28;20034;-73
2023/02/01 04:17:40;;;;;;;12.98;3.40;;;;;;;;;;4972915;28;20106;-73
2023/02/01 04:20:06;;;;;;;9.48;3.47;;;;;;;;;;4973649;28;20380;-74
2023/02/01 04:22:32;;;;;;;15.18;3.22;;;;;;;;;;4973612;28;20027;-73
2023/02/01 04:24:58;;;;;;;15.27;3.63;;;;;;;;;;4973816;28;20033;-74
2023/02/01 04:27:24;;;;;;;10.15;2.30;;;;;;;;;;4972079;28;20033;-73
2023/02/01 04:29:50;;;;;;;11.93;2.63;;;;;;;;;;4971764;28;20110;-73
2023/02/01 04:32:16;;;;;;;10.38;2.50;;;;;;;;;;4973703;28;20150;-74
2023/02/01 04:34:43;;;;;;;17.80;3.65;;;;;;;;;;4973507;28;20058;-74
2023/02/01 04:37:09;;;;;;;12.75;3.15;;;;;;;;;;4972799;28;20027;-73
2023/02/01 04:39:35;;;;;;;17.80;2.67;;;;;;;;;;4973090;28;20027;-74
2023/02/01 04:42:01;;;;;;;15.13;3.35;;;;;;;;;;4971724;28;20061;-74
2023/02/01 04:44:27;;;;;;;15.75;3.88;;;;;;;;;;4972986;28;20050;-74
2023/02/01 04:46:53;;;;;;;15.38;4.10;;;;;;;;;;4973150;28;20361;-74
2023/02/01 04:49:21;;;;;;;13.02;3.42;;;;;;;;;;4972387;28;20121;-73
2023/02/01 04:51:47;;;;;;;11.88;3.42;;;;;;;;;;4973379;28;20023;-74
2023/02/01 04:54:13;;;;;;;9.48;2.72;;;;;;;;;;4975039;28;20069;-74
2023/02/01 04:56:39;;;;;;;17.05;3.03;;;;;;;;;;4974030;28;20046;-75
2023/02/01 04:59:05;;;;;;;13.05;2.95;;;;;;;;;;4979692;28;20031;-75
2023/02/01 05:01:31;;;;;;;12.60;3.00;;;;;;;;;;4980551;28;20034;-75
2023/02/01 05:03:57;;;;;;;13.10;3.38;;;;;;;;;;4980669;28;20015;-75
2023/02/01 05:06:24;;;;;;;16.02;3.22;;;;;;;;;;4974099;28;20094;-75
2023/02/01 05:08:50;;;;;;;14.30;4.15;;;;;;;;;;4972289;28;20023;-75
2023/02/01 05:14:00;;;;;;;19.15;3.50;;;;;;;;;;4972890;28;20146;-75
2023/02/01 05:16:26;;;;;;;14.50;3.92;;;;;;;;;;4972779;28;20023;-75
2023/02/01 05:18:52;;;;;;;15.05;2.67;;;;;;;;;;4971752;28;20049;-75
2023/02/01 05:21:19;;;;;;;16.25;3.83;;;;;;;;;;4973004;28;20401;-75
2023/02/01 05:26:29;;;;;;;13.45;2.88;;;;;;;;;;4973026;28;20034;-74
2023/02/01 05:28:55;;;;;;;18.38;3.67;;;;;;;;;;4970009;28;20031;-74
2023/02/01 05:31:21;;;;;;;17.95;3.97;;;;;;;;;;4971138;28;20038;-75
2023/02/01 05:33:48;;;;;;;16.20;3.70;;;;;;;;;;4972987;28;20070;-75
2023/02/01 05:36:14;;;;;;;12.50;3.60;;;;;;;;;;4970874;28;20506;-75
2023/02/01 05:38:40;;;;;;;15.18;3.42;;;;;;;;;;4970501;28;20065;-74
2023/02/01 05:41:06;;;;;;;16.75;3.75;;;;;;;;;;4972396;28;20398;-71
2023/02/01 05:43:32;;;;;;;17.15;3.90;;;;;;;;;;4972372;28;20028;-75
2023/02/01 05:45:57;;;;;;;15.63;3.13;;;;;;;;;;4972449;28;20027;-74
2023/02/01 05:48:24;;;;;;;19.90;5.05;;;;;;;;;;4971655;28;20500;-74
2023/02/01 05:50:49;;;;;;;21.92;4.82;;;;;;;;;;4970842;28;20035;-74
2023/02/01 05:53:15;;;;;;;15.85;3.50;;;;;;;;;;4972168;28;20027;-74
2023/02/01 05:55:42;;;;;;;14.82;3.30;;;;;;;;;;4972058;28;20485;-74
2023/02/01 05:58:08;;;;;;;18.23;4.45;;;;;;;;;;4971405;28;20035;-74
2023/02/01 06:00:34;;;;;;;19.45;3.92;;;;;;;;;;4971955;28;20496;-75
2023/02/01 06:03:01;;;;;;;16.30;4.70;;;;;;;;;;4972141;28;20027;-76
2023/02/01 06:05:27;;;;;;;19.38;4.63;;;;;;;;;;4970564;28;20027;-76
2023/02/01 06:07:53;;;;;;;18.67;5.18;;;;;;;;;;4970000;28;20552;-74
2023/02/01 06:10:19;;;;;;;18.90;3.95;;;;;;;;;;4971940;28;20031;-74
2023/02/01 06:12:46;;;;;;;12.35;3.33;;;;;;;;;;4972157;28;20058;-74
2023/02/01 06:15:12;;;;;;;18.20;4.63;;;;;;;;;;4970520;28;20045;-75
2023/02/01 06:17:41;;;;;;;17.45;4.05;;;;;;;;;;4969824;28;20034;-72
2023/02/01 06:20:07;;;;;;;11.65;3.47;;;;;;;;;;4972130;28;20027;-74
2023/02/01 06:22:35;;;;;;;14.43;3.80;;;;;;;;;;4971785;28;20023;-72
2023/02/01 06:25:01;;;;;;;21.50;4.00;;;;;;;;;;4971041;28;20047;-73
2023/02/01 06:27:28;;;;;;;14.88;3.58;;;;;;;;;;4970342;28;20030;-74
2023/02/01 06:29:54;;;;;;;9.63;2.88;;;;;;;;;;4984736;22;20035;-70
2023/02/01 06:32:21;;;;;;;10.13;3.22;;;;;;;;;;4933205;29;20087;-72
2023/02/01 06:34:47;;;;;;;14.35;3.88;;;;;;;;;;4947644;29;20024;-69
2023/02/01 06:37:13;;;;;;;15.48;3.42;;;;;;;;;;4931761;29;20066;-73
2023/02/01 06:39:39;;;;;;;17.38;3.80;;;;;;;;;;4934588;29;20043;-71
2023/02/01 06:42:05;;;;;;;10.68;3.83;;;;;;;;;;4936275;29;20124;-73
2023/02/01 06:44:31;;;;;;;13.13;3.17;;;;;;;;;;4935874;29;20544;-71
2023/02/01 06:46:57;;;;;;;14.82;3.72;;;;;;;;;;4935885;29;20111;-74
2023/02/01 06:49:23;;;;;;;12.32;2.97;;;;;;;;;;4934355;29;20028;-72
2023/02/01 06:51:49;;;;;;;10.50;3.45;;;;;;;;;;4936462;29;20020;-72
2023/02/01 06:54:15;;;;;;;16.25;3.70;;;;;;;;;;4936703;29;20024;-72
2023/02/01 06:56:41;;;;;;;16.20;3.88;;;;;;;;;;4936535;29;20030;-72
2023/02/01 06:59:08;;;;;;;10.18;3.10;;;;;;;;;;4935307;29;20024;-73
2023/02/01 07:01:34;;;;;;;10.32;3.03;;;;;;;;;;4934918;29;20096;-72
2023/02/01 07:04:01;;;;;;;12.63;3.47;;;;;;;;;;4936964;29;20027;-69
2023/02/01 07:06:27;;;;;;;14.95;3.40;;;;;;;;;;4937321;29;20024;-73
2023/02/01 07:08:55;;;;;;;13.27;3.58;;;;;;;;;;4935892;29;20071;-72
2023/02/01 07:11:22;;;;;;;12.25;3.90;;;;;;;;;;4935913;29;20039;-70
2023/02/01 07:13:48;;;;;;;14.65;3.70;;;;;;;;;;4936311;29;20118;-71
2023/02/01 07:16:18;;;;;;;15.07;4.00;;;;;;;;;;4936248;29;20023;-74
2023/02/01 07:18:45;;;;;;;15.07;3.70;;;;;;;;;;4935131;29;20038;-70
2023/02/01 07:21:11;;;;;;;11.95;3.80;;;;;;;;;;4935351;29;20034;-72
2023/02/01 07:23:38;;;;;;;17.13;3.72;;;;;;;;;;4935789;29;20039;-71
2023/02/01 07:26:05;;;;;;;16.95;4.20;;;;;;;;;;4935696;29;20030;-73
2023/02/01 07:28:32;;;;;;;16.95;4.63;;;;;;;;;;4934630;29;20023;-71
2023/02/01 07:31:08;;;;;;;22.45;4.50;;;;;;;;;;4934141;29;20298;-73
2023/02/01 07:33:34;;;;;;;20.50;4.88;;;;;;;;;;4935604;29;20035;-71
2023/02/01 07:36:01;;;;;;;15.98;4.30;;;;;;;;;;4935983;29;20031;-71
2023/02/01 07:38:28;;;;;;;17.95;4.80;;;;;;;;;;4933173;29;20414;-72
2023/02/01 07:40:58;;;;;;;15.07;4.07;;;;;;;;;;4933888;29;20058;-72
2023/02/01 07:43:24;;;;;;;18.30;4.55;;;;;;;;;;4935623;29;20031;-73
2023/02/01 07:45:53;;;;;;;15.85;4.97;;;;;;;;;;4935343;29;20030;-74
2023/02/01 07:48:20;;;;;;;16.80;3.22;;;;;;;;;;4935083;29;20027;-73
2023/02/01 07:50:46;;;;;;;15.75;4.00;;;;;;;;;;4934819;29;20040;-72
2023/02/01 07:53:12;;;;;;;13.63;4.13;;;;;;;;;;4935152;29;20055;-73
2023/02/01 07:55:38;;;;;;;15.77;4.72;;;;;;;;;;4935440;29;20058;-73
2023/02/01 07:58:04;;;;;;;15.68;4.32;;;;;;;;;;4934676;29;20047;-73
2023/02/01 08:03:15;;;;;;;11.15;3.58;;;;;;;;;;4936063;29;20126;-72
2023/02/01 08:05:41;;;;;;;13.85;3.80;;;;;;;;;;4935130;29;20032;-72
2023/02/01 08:08:07;;;;;;;19.27;4.70;;;;;;;;;;4934139;29;20063;-72
2023/02/01 08:10:34;;;;;;;14.70;4.20;;;;;;;;;;4935379;29;20024;-73
2023/02/01 08:13:01;;;;;;;12.50;3.55;;;;;;;;;;4935316;29;20493;-73
2023/02/01 08:15:27;;;;;;;20.20;4.72;;;;;;;;;;4935127;29;20055;-73
2023/02/01 08:17:58;;;;;;;20.52;4.32;;;;;;;;;;4934521;29;20397;-72
2023/02/01 08:20:25;;;;;;;22.70;4.67;;;;;;;;;;4929484;29;20470;-73
2023/02/01 08:22:51;;;;;;;14.50;3.65;;;;;;;;;;4932378;29;20264;-73
2023/02/01 08:25:18;;;;;;;16.42;4.28;;;;;;;;;;4932793;29;20478;-72
2023/02/01 08:27:44;;;;;;;14.38;4.57;;;;;;;;;;4931575;29;20127;-73
2023/02/01 08:30:10;;;;;;;15.65;4.10;;;;;;;;;;4934032;29;20343;-73
2023/02/01 08:32:36;;;;;;;18.80;4.70;;;;;;;;;;4933383;29;20095;-73
2023/02/01 08:35:03;;;;;;;9.85;3.97;;;;;;;;;;4933265;29;20387;-73
2023/02/01 08:37:29;;;;;;;19.73;4.63;;;;;;;;;;4932105;29;20028;-74
2023/02/01 08:39:55;;;;;;;20.33;4.38;;;;;;;;;;4934600;29;20055;-73
2023/02/01 08:45:07;;;;;;;17.83;3.75;;;;;;;;;;4934456;29;20066;-72
2023/02/01 08:47:34;;;;;;;15.07;4.10;;;;;;;;;;4932412;29;20127;-73
2023/02/01 08:50:00;;;;;;;16.25;4.95;;;;;;;;;;4934309;29;20106;-72
2023/02/01 08:52:26;;;;;;;10.20;3.53;;;;;;;;;;4934412;29;20099;-73
2023/02/01 08:54:52;;;;;;;13.88;3.72;;;;;;;;;;4932881;29;20110;-72
2023/02/01 08:57:18;;;;;;;16.42;2.92;;;;;;;;;;4933504;29;20455;-73
2023/02/01 08:59:44;;;;;;;17.48;3.35;;;;;;;;;;4932936;29;20455;-71
2023/02/01 09:02:12;;;;;;;19.52;3.75;;;;;;;;;;4933687;29;20024;-72
2023/02/01 09:04:38;;;;;;;9.32;2.80;;;;;;;;;;4932909;29;20020;-72
2023/02/01 09:07:04;;;;;;;11.43;3.13;;;;;;;;;;4933681;29;20098;-70
2023/02/01 09:09:30;;;;;;;7.60;2.60;;;;;;;;;;4934243;29;20083;-72
2023/02/01 09:11:56;;;;;;;12.13;3.42;;;;;;;;;;4934027;29;20031;-72
2023/02/01 09:14:23;;;;;;;13.23;2.83;;;;;;;;;;4932636;29;20019;-72
2023/02/01 09:16:49;;;;;;;11.32;3.25;;;;;;;;;;4934180;29;20103;-71
2023/02/01 09:19:15;;;;;;;15.32;3.35;;;;;;;;;;4933062;29;20035;-72
2023/02/01 09:21:41;;;;;;;10.85;3.55;;;;;;;;;;4933794;29;20024;-72
2023/02/01 09:24:07;;;;;;;19.20;3.70;;;;;;;;;;4933038;29;20371;-71
2023/02/01 09:26:33;;;;;;;12.38;3.10;;;;;;;;;;4932353;29;20027;-71
2023/02/01 09:29:00;;;;;;;10.13;3.95;;;;;;;;;;4931088;29;20023;-73
2023/02/01 09:31:26;;;;;;;14.43;3.40;;;;;;;;;;4932181;29;20044;-72
2023/02/01 09:33:52;;;;;;;15.50;3.50;;;;;;;;;;4930673;29;20028;-73
2023/02/01 09:36:19;;;;;;;13.80;3.63;;;;;;;;;;4931891;29;20031;-73
2023/02/01 09:38:45;;;;;;;16.90;3.70;;;;;;;;;;4932276;29;20114;-72
2023/02/01 09:41:33;;;;;;;13.88;4.13;;;;;;;;;;4933373;29;20024;-71
2023/02/01 09:44:03;;;;;;;13.00;3.88;;;;;;;;;;4933941;29;20082;-72
2023/02/01 09:46:30;;;;;;;15.60;3.45;;;;;;;;;;4933274;29;20054;-72
2023/02/01 09:48:58;;;;;;;15.45;3.53;;;;;;;;;;4932870;29;20059;-73
2023/02/01 09:51:27;;;;;;;14.40;3.95;;;;;;;;;;4933456;29;20487;-73
2023/02/01 09:53:59;;;;;;;14.52;4.30;;;;;;;;;;4935183;29;20599;-72
2023/02/01 09:56:27;;;;;;;18.38;4.10;;;;;;;;;;4952476;29;20489;-72
2023/02/01 09:59:04;;;;;;;13.15;4.28;;;;;;;;;;4952114;29;20047;-70
2023/02/01 10:01:31;;;;;;;20.85;4.95;;;;;;;;;;4952903;29;20087;-72
2023/02/01 10:04:05;;;;;;;19.30;4.45;;;;;;;;;;4952911;29;20091;-72
2023/02/01 10:06:55;;;;;;;15.88;4.90;;;;;;;;;;4952894;29;20397;-72
2023/02/01 10:09:24;;;;;;;16.67;5.00;;;;;;;;;;4952743;29;20498;-71
2023/02/01 10:11:55;;;;;;;16.02;5.22;;;;;;;;;;4951840;29;20042;-69
2023/02/01 10:14:27;;;;;;;13.07;4.60;;;;;;;;;;4955999;28;20031;-73
2023/02/01 10:16:59;;;;;;;18.88;5.05;;;;;;;;;;4956414;29;20197;-74
2023/02/01 10:19:25;;;;;;;16.05;5.78;;;;;;;;;;4956080;29;20035;-71
2023/02/01 10:21:51;;;;;;;10.10;4.38;;;;;;;;;;4954955;29;20375;-71
2023/02/01 10:24:16;;;;;;;19.85;4.80;;;;;;;;;;4956635;29;20090;-72
2023/02/01 10:26:48;;;;;;;10.63;3.95;;;;;;;;;;4956303;29;20031;-70
2023/02/01 10:29:19;;;;;;;15.25;4.93;;;;;;;;;;4942848;29;20038;-72
2023/02/01 10:31:46;;;;;;;13.70;5.05;;;;;;;;;;4937005;29;20039;-71
2023/02/01 10:34:27;;;;;;;10.15;4.60;;;;;;;;;;4937196;29;20032;-71
2023/02/01 10:36:54;;;;;;;14.45;4.45;;;;;;;;;;4935799;29;20078;-71
2023/02/01 10:39:21;;;;;;;14.32;4.20;;;;;;;;;;4934821;29;20039;-71
2023/02/01 10:41:47;;;;;;;16.35;4.15;;;;;;;;;;4936703;29;20046;-72
2023/02/01 10:44:15;;;;;;;16.48;4.95;;;;;;;;;;4935573;29;20616;-72
2023/02/01 10:46:41;;;;;;;21.10;5.32;;;;;;;;;;4936847;29;20102;-72
2023/02/01 10:49:17;;;;;;;12.93;4.05;;;;;;;;;;4934788;29;20082;-72
2023/02/01 10:51:50;;;;;;;12.65;4.30;;;;;;;;;;4936728;29;20118;-71
2023/02/01 10:54:21;;;;;;;11.95;4.35;;;;;;;;;;4936527;29;20131;-72
2023/02/01 10:56:49;;;;;;;14.02;4.63;;;;;;;;;;4936604;29;20121;-71
2023/02/01 10:59:17;;;;;;;13.07;4.18;;;;;;;;;;4931467;29;20086;-72
2023/02/01 11:01:47;;;;;;;18.08;5.18;;;;;;;;;;4930535;29;20510;-73
2023/02/01 11:04:19;;;;;;;14.77;4.78;;;;;;;;;;4934994;29;20032;-72
2023/02/01 11:06:47;;;;;;;17.00;4.05;;;;;;;;;;4931100;29;20028;-70
2023/02/01 11:09:16;;;;;;;14.98;4.30;;;;;;;;;;4933607;29;20039;-70
2023/02/01 11:11:48;;;;;;;10.52;3.80;;;;;;;;;;4915286;29;20028;-71
2023/02/01 11:14:26;;;;;;;11.25;4.05;;;;;;;;;;4920951;29;20512;-71
2023/02/01 11:16:57;;;;;;;13.18;3.90;;;;;;;;;;4934360;29;20562;-71
2023/02/01 11:19:24;;;;;;;16.20;4.32;;;;;;;;;;4933546;29;20167;-69
2023/02/01 11:21:51;;;;;;;12.10;3.47;;;;;;;;;;4935716;29;20031;-71
2023/02/01 11:24:32;;;;;;;15.68;4.30;;;;;;;;;;4930912;29;20027;-72
2023/02/01 11:27:00;;;;;;;11.70;3.90;;;;;;;;;;4935474;29;20023;-68
2023/02/01 11:29:29;;;;;;;15.38;4.10;;;;;;;;;;4936936;29;20038;-72
2023/02/01 11:31:59;;;;;;;22.27;4.38;;;;;;;;;;4933837;29;20049;-71
2023/02/01 11:34:27;;;;;;;13.45;3.97;;;;;;;;;;4934369;29;20046;-74
2023/02/01 11:36:55;;;;;;;13.40;3.10;;;;;;;;;;4935977;29;20523;-72
2023/02/01 11:39:31;;;;;;;16.77;3.47;;;;;;;;;;4935201;29;20079;-73
2023/02/01 11:42:12;;;;;;;12.70;3.35;;;;;;;;;;4935651;29;20479;-73
2023/02/01 11:44:43;;;;;;;12.38;3.03;;;;;;;;;;4935763;29;20024;-72
2023/02/01 11:47:31;;;;;;;15.03;3.73;;;;;;;;;;4935156;29;20501;-72
2023/02/01 11:49:58;;;;;;;14.05;3.53;;;;;;;;;;4935763;29;20036;-74
2023/02/01 11:52:24;;;;;;;15.23;4.57;;;;;;;;;;4935772;29;20036;-73
2023/02/01 11:54:53;;;;;;;19.13;4.53;;;;;;;;;;4935367;29;20024;-73
2023/02/01 11:57:19;;;;;;;14.50;3.55;;;;;;;;;;4934877;29;20030;-70
2023/02/01 12:00:14;;;;;;;7.22;2.97;;;;;;;;;;4934415;29;20024;-72
2023/02/01 12:02:59;;;;;;;11.15;2.90;;;;;;;;;;4927033;29;20039;-71
2023/02/01 12:05:32;;;;;;;12.63;2.72;;;;;;;;;;4935471;29;20034;-72
2023/02/01 12:08:07;;;;;;;10.25;3.72;;;;;;;;;;4935479;29;20034;-72
2023/02/01 12:10:52;;;;;;;14.32;4.15;;;;;;;;;;4933213;29;20662;-70
2023/02/01 12:13:25;;;;;;;12.40;2.85;;;;;;;;;;4933327;29;20575;-72
2023/02/01 12:16:20;;;;;;;12.75;3.65;;;;;;;;;;4933327;29;20027;-71
2023/02/01 12:19:01;;;;;;;17.17;2.92;;;;;;;;;;4881020;29;20037;-72
2023/02/01 12:21:42;;;;;;;8.60;2.65;;;;;;;;;;4933655;29;20070;-71
2023/02/01 12:24:19;;;;;;;13.38;3.25;;;;;;;;;;4933426;29;20043;-71
2023/02/01 12:27:09;;;;;;;10.20;2.92;;;;;;;;;;4933645;29;20031;-72
2023/02/01 12:29:53;;;;;;;9.55;2.83;;;;;;;;;;4927634;29;20050;-73
2023/02/01 12:32:25;;;;;;;6.60;1.98;;;;;;;;;;5003828;23;20038;-70
2023/02/01 12:34:51;;;;;;;9.68;2.38;;;;;;;;;;4990342;28;20492;-71
2023/02/01 12:37:30;;;;;;;10.13;2.70;;;;;;;;;;4989938;28;20451;-72
2023/02/01 12:40:03;;;;;;;7.57;2.70;;;;;;;;;;4992779;28;20314;-72
2023/02/01 12:42:32;;;;;;;11.70;3.10;;;;;;;;;;4992711;28;20567;-72
2023/02/01 12:45:14;;;;;;;11.98;3.00;;;;;;;;;;4992689;28;20038;-72
2023/02/01 12:48:06;;;;;;;7.57;2.67;;;;;;;;;;4992190;28;20034;-72
2023/02/01 12:50:45;;;;;;;11.73;3.47;;;;;;;;;;4977420;28;20038;-72
2023/02/01 12:53:30;;;;;;;11.30;3.08;;;;;;;;;;4992761;28;20030;-72
2023/02/01 12:56:01;;;;;;;10.98;2.70;;;;;;;;;;4992697;28;20026;-72
2023/02/01 12:58:41;;;;;;;9.80;3.35;;;;;;;;;;4990010;28;20129;-73
2023/02/01 13:01:08;;;;;;;14.07;3.47;;;;;;;;;;4992421;28;20381;-72
2023/02/01 13:03:53;;;;;;;13.32;3.35;;;;;;;;;;4992456;28;20101;-72
2023/02/01 13:06:30;;;;;;;13.30;2.72;;;;;;;;;;4992364;28;20030;-73
2023/02/01 13:09:04;;;;;;;10.63;3.50;;;;;;;;;;4991651;28;20154;-72
2023/02/01 13:11:41;;;;;;;12.77;3.42;;;;;;;;;;4992670;28;20453;-72
2023/02/01 13:14:25;;;;;;;10.23;2.45;;;;;;;;;;4993504;28;20412;-72
2023/02/01 13:16:53;;;;;;;11.48;2.70;;;;;;;;;;4992751;28;20030;-72
2023/02/01 13:19:23;;;;;;;9.30;3.05;;;;;;;;;;4992335;28;20026;-72
2023/02/01 13:21:52;;;;;;;15.35;3.38;;;;;;;;;;4992534;28;20025;-72
2023/02/01 13:24:27;;;;;;;12.80;2.75;;;;;;;;;;4991129;28;20027;-70
2023/02/01 13:26:54;;;;;;;11.68;2.85;;;;;;;;;;4992355;28;20030;-73
2023/02/01 13:29:21;;;;;;;7.38;2.38;;;;;;;;;;4991278;28;20122;-71
2023/02/01 13:31:58;;;;;;;13.57;3.40;;;;;;;;;;4992136;28;20045;-72
2023/02/01 13:34:43;;;;;;;14.82;3.42;;;;;;;;;;4989426;28;20404;-71
2023/02/01 13:37:18;;;;;;;9.73;3.00;;;;;;;;;;4989448;28;20026;-72
2023/02/01 13:40:14;;;;;;;11.85;3.22;;;;;;;;;;4991864;28;20549;-71
2023/02/01 13:42:49;;;;;;;10.82;2.85;;;;;;;;;;4955779;28;20071;-74
2023/02/01 13:45:17;;;;;;;10.43;2.70;;;;;;;;;;4991795;28;20512;-73
2023/02/01 13:47:45;;;;;;;9.57;2.40;;;;;;;;;;4990474;28;20018;-73
2023/02/01 13:50:17;;;;;;;11.05;2.92;;;;;;;;;;4990463;28;20034;-72
2023/02/01 13:52:45;;;;;;;11.57;3.17;;;;;;;;;;4991739;28;20097;-73
2023/02/01 13:55:13;;;;;;;5.82;1.95;;;;;;;;;;4991601;28;20555;-73
2023/02/01 13:57:41;;;;;;;8.00;2.60;;;;;;;;;;4990729;28;20030;-73
2023/02/01 14:00:23;;;;;;;13.13;3.05;;;;;;;;;;4990394;28;20452;-73
2023/02/01 14:02:51;;;;;;;14.77;2.78;;;;;;;;;;4991672;28;20393;-72
2023/02/01 14:05:23;;;;;;;15.02;3.03;;;;;;;;;;4989702;28;20413;-72
2023/02/01 14:08:05;;;;;;;7.38;2.22;;;;;;;;;;4989654;28;20448;-73
2023/02/01 14:10:51;;;;;;;9.45;2.83;;;;;;;;;;4991295;28;20031;-73
2023/02/01 14:13:20;;;;;;;6.40;2.20;;;;;;;;;;4992060;28;20577;-73
2023/02/01 14:16:05;;;;;;;11.18;2.47;;;;;;;;;;4991797;28;20033;-73
2023/02/01 14:18:34;;;;;;;7.75;2.47;;;;;;;;;;4989820;28;20119;-74
2023/02/01 14:21:15;;;;;;;11.18;2.47;;;;;;;;;;4991201;28;20121;-74
2023/02/01 14:23:41;;;;;;;;;;;;;;;;;;4994080;28;20457;-74
2023/02/01 14:26:08;;;;;;;13.13;3.03;;;;;;;;;;4995360;28;19909;-74
2023/02/01 14:28:37;;;;;;;7.57;2.65;;;;;;;;;;4992831;28;20508;-73
2023/02/01 14:31:14;;;;;;;8.65;2.72;;;;;;;;;;4993401;28;20488;-73
2023/02/01 14:33:42;;;;;;;10.38;2.70;;;;;;;;;;4993725;28;20080;-74
2023/02/01 14:36:10;;;;;;;11.32;2.53;;;;;;;;;;4990964;28;20433;-74
2023/02/01 14:38:38;;;;;;;6.82;2.17;;;;;;;;;;4989927;28;20033;-73
2023/02/01 14:41:16;;;;;;;11.80;2.47;;;;;;;;;;4991748;28;20027;-72
2023/02/01 14:44:11;;;;;;;7.60;2.35;;;;;;;;;;4993146;28;20077;-73
2023/02/01 14:46:56;;;;;;;21.55;3.10;;;;;;;;;;4992780;28;20030;-72
2023/02/01 14:49:23;;;;;;;14.80;3.05;;;;;;;;;;4992943;28;20031;-73
2023/02/01 14:51:49;;;;;;;6.32;2.40;;;;;;;;;;4992810;28;20034;-73
2023/02/01 14:54:15;;;;;;;7.68;2.65;;;;;;;;;;4993397;28;20030;-73
2023/02/01 14:56:41;;;;;;;11.00;3.17;;;;;;;;;;4991513;28;20045;-73
2023/02/01 14:59:09;;;;;;;12.75;3.25;;;;;;;;;;4989645;28;20076;-74
2023/02/01 15:01:38;;;;;;;10.60;2.63;;;;;;;;;;4994459;28;20019;-73
2023/02/01 15:04:07;;;;;;;11.30;2.38;;;;;;;;;;4995140;28;20106;-73
2023/02/01 15:06:40;;;;;;;10.20;2.53;;;;;;;;;;4995544;28;20030;-74
2023/02/01 15:09:12;;;;;;;9.77;3.20;;;;;;;;;;4994501;28;20571;-74
2023/02/01 15:11:54;;;;;;;10.02;2.50;;;;;;;;;;4994219;28;20034;-73
2023/02/01 15:14:20;;;;;;;14.43;3.45;;;;;;;;;;4992869;28;20110;-72
2023/02/01 15:16:53;;;;;;;11.70;2.72;;;;;;;;;;4994182;28;20027;-71